Nepton, Kentucky
Current Conditions -  °F | °C
As of 3:15 AM on Thursday 29 Jan 2015 (Local Time) from KFGX Reporting Station
Clear Clear  
Wind Chill: 24°   Ceiling: Unl
Heat Index: 32°   Visibility: 10mi
Dew Point: 22°   Wind: 10mph
Humidity: 65%   Direction: 160°SSE
Pressure: 30.1"   Gusts: NA
Location:  38.4071°N, 83.873°W
Report Text: KFGX 290815Z AUTO 16009KT 10SM CLR 00/M06 A3010 RMK AO2 T00021057
Loading
Personal Weather Stations






























Interactive Weather Map New forecast layout! Learn more

10-Day Weather Forecast

Advertisements
Track Severe Weather on mobile